sensor_id;sensor_type;location;lat;lon;timestamp;P1;durP1;ratioP1;P2;durP2;ratioP2
76063;SDS011;64762;52.006;8.424;2023-06-10T04:46:02;9.60;;;5.00;;
76063;SDS011;64762;52.006;8.424;2023-06-10T04:48:29;9.32;;;4.05;;
76063;SDS011;64762;52.006;8.424;2023-06-10T04:51:33;11.75;;;4.75;;
76063;SDS011;64762;52.006;8.424;2023-06-10T05:00:13;8.90;;;4.45;;
76063;SDS011;64762;52.006;8.424;2023-06-10T05:03:22;13.35;;;5.13;;
76063;SDS011;64762;52.006;8.424;2023-06-10T05:06:12;10.20;;;4.38;;
76063;SDS011;64762;52.006;8.424;2023-06-10T05:08:53;10.85;;;4.80;;
76063;SDS011;64762;52.006;8.424;2023-06-10T05:14:26;10.85;;;5.20;;
76063;SDS011;64762;52.006;8.424;2023-06-10T05:17:23;9.88;;;4.90;;
76063;SDS011;64762;52.006;8.424;2023-06-10T05:19:50;11.38;;;4.53;;
76063;SDS011;64762;52.006;8.424;2023-06-10T05:22:15;12.93;;;5.03;;
76063;SDS011;64762;52.006;8.424;2023-06-10T05:24:43;10.85;;;4.80;;
76063;SDS011;64762;52.006;8.424;2023-06-10T05:27:08;12.55;;;4.68;;
76063;SDS011;64762;52.006;8.424;2023-06-10T05:29:34;15.00;;;5.07;;
76063;SDS011;64762;52.006;8.424;2023-06-10T05:31:59;11.27;;;4.10;;
76063;SDS011;64762;52.006;8.424;2023-06-10T05:34:27;11.15;;;4.60;;
76063;SDS011;64762;52.006;8.424;2023-06-10T05:36:53;11.48;;;4.45;;
76063;SDS011;64762;52.006;8.424;2023-06-10T05:39:18;9.50;;;4.30;;
76063;SDS011;64762;52.006;8.424;2023-06-10T05:41:44;13.90;;;4.80;;
76063;SDS011;64762;52.006;8.424;2023-06-10T05:44:10;11.82;;;4.07;;
76063;SDS011;64762;52.006;8.424;2023-06-10T05:46:35;9.30;;;4.40;;
76063;SDS011;64762;52.006;8.424;2023-06-10T05:49:01;9.37;;;4.40;;
76063;SDS011;64762;52.006;8.424;2023-06-10T05:51:26;10.77;;;4.37;;
76063;SDS011;64762;52.006;8.424;2023-06-10T05:53:53;20.15;;;5.20;;
76063;SDS011;64762;52.006;8.424;2023-06-10T05:56:18;12.23;;;4.88;;
76063;SDS011;64762;52.006;8.424;2023-06-10T05:58:45;11.25;;;4.20;;
76063;SDS011;64762;52.006;8.424;2023-06-10T06:01:10;10.90;;;5.17;;
76063;SDS011;64762;52.006;8.424;2023-06-10T06:03:36;9.23;;;4.00;;
76063;SDS011;64762;52.006;8.424;2023-06-10T06:06:01;9.50;;;3.90;;
76063;SDS011;64762;52.006;8.424;2023-06-10T06:08:27;7.25;;;3.30;;
76063;SDS011;64762;52.006;8.424;2023-06-10T06:10:52;9.43;;;4.23;;
76063;SDS011;64762;52.006;8.424;2023-06-10T06:13:18;10.10;;;4.13;;
76063;SDS011;64762;52.006;8.424;2023-06-10T06:15:45;10.27;;;4.53;;
76063;SDS011;64762;52.006;8.424;2023-06-10T06:18:11;11.07;;;5.55;;
76063;SDS011;64762;52.006;8.424;2023-06-10T06:20:36;7.53;;;3.67;;
76063;SDS011;64762;52.006;8.424;2023-06-10T06:23:01;10.73;;;3.77;;
76063;SDS011;64762;52.006;8.424;2023-06-10T06:25:27;21.77;;;4.60;;
76063;SDS011;64762;52.006;8.424;2023-06-10T06:27:52;10.40;;;4.03;;
76063;SDS011;64762;52.006;8.424;2023-06-10T06:30:17;8.97;;;3.87;;
76063;SDS011;64762;52.006;8.424;2023-06-10T06:32:43;14.23;;;4.20;;
76063;SDS011;64762;52.006;8.424;2023-06-10T06:35:08;9.23;;;3.50;;
76063;SDS011;64762;52.006;8.424;2023-06-10T06:37:36;9.52;;;3.83;;
76063;SDS011;64762;52.006;8.424;2023-06-10T06:40:01;11.05;;;4.60;;
76063;SDS011;64762;52.006;8.424;2023-06-10T06:42:28;7.70;;;4.28;;
76063;SDS011;64762;52.006;8.424;2023-06-10T06:44:53;8.23;;;3.85;;
76063;SDS011;64762;52.006;8.424;2023-06-10T06:47:19;10.00;;;3.90;;
76063;SDS011;64762;52.006;8.424;2023-06-10T06:49:45;10.30;;;3.63;;
76063;SDS011;64762;52.006;8.424;2023-06-10T06:52:11;8.38;;;3.45;;
76063;SDS011;64762;52.006;8.424;2023-06-10T06:54:40;13.35;;;4.65;;
76063;SDS011;64762;52.006;8.424;2023-06-10T06:59:47;9.38;;;4.03;;
76063;SDS011;64762;52.006;8.424;2023-06-10T07:02:13;10.60;;;4.00;;
76063;SDS011;64762;52.006;8.424;2023-06-10T07:04:38;9.20;;;3.90;;
76063;SDS011;64762;52.006;8.424;2023-06-10T07:07:07;7.90;;;3.50;;
76063;SDS011;64762;52.006;8.424;2023-06-10T07:09:33;11.00;;;4.20;;
76063;SDS011;64762;52.006;8.424;2023-06-10T07:11:58;10.27;;;4.10;;
76063;SDS011;64762;52.006;8.424;2023-06-10T07:14:23;9.37;;;3.57;;
76063;SDS011;64762;52.006;8.424;2023-06-10T07:16:49;8.75;;;3.78;;
76063;SDS011;64762;52.006;8.424;2023-06-10T07:19:14;8.80;;;4.60;;
76063;SDS011;64762;52.006;8.424;2023-06-10T07:21:40;8.43;;;3.47;;
76063;SDS011;64762;52.006;8.424;2023-06-10T07:24:05;9.40;;;3.80;;
76063;SDS011;64762;52.006;8.424;2023-06-10T07:26:30;8.50;;;3.75;;
76063;SDS011;64762;52.006;8.424;2023-06-10T07:28:56;7.87;;;4.00;;
76063;SDS011;64762;52.006;8.424;2023-06-10T07:31:22;8.87;;;3.70;;
76063;SDS011;64762;52.006;8.424;2023-06-10T07:33:49;8.60;;;4.00;;
76063;SDS011;64762;52.006;8.424;2023-06-10T07:36:14;7.90;;;3.60;;
76063;SDS011;64762;52.006;8.424;2023-06-10T07:38:40;9.18;;;4.05;;
76063;SDS011;64762;52.006;8.424;2023-06-10T07:41:07;9.98;;;4.13;;
76063;SDS011;64762;52.006;8.424;2023-06-10T07:43:33;7.88;;;3.78;;
76063;SDS011;64762;52.006;8.424;2023-06-10T07:45:59;8.90;;;3.53;;
76063;SDS011;64762;52.006;8.424;2023-06-10T07:48:24;10.77;;;4.57;;
76063;SDS011;64762;52.006;8.424;2023-06-10T07:50:51;10.97;;;4.37;;
76063;SDS011;64762;52.006;8.424;2023-06-10T07:53:16;10.43;;;4.68;;
76063;SDS011;64762;52.006;8.424;2023-06-10T07:55:42;9.10;;;4.13;;
76063;SDS011;64762;52.006;8.424;2023-06-10T07:58:07;9.03;;;4.00;;
76063;SDS011;64762;52.006;8.424;2023-06-10T08:00:33;8.95;;;4.07;;
76063;SDS011;64762;52.006;8.424;2023-06-10T08:02:58;10.67;;;4.00;;
76063;SDS011;64762;52.006;8.424;2023-06-10T08:05:23;11.17;;;4.67;;
76063;SDS011;64762;52.006;8.424;2023-06-10T08:07:49;9.98;;;3.80;;
76063;SDS011;64762;52.006;8.424;2023-06-10T08:10:14;7.22;;;4.05;;
76063;SDS011;64762;52.006;8.424;2023-06-10T08:12:40;10.65;;;4.22;;
76063;SDS011;64762;52.006;8.424;2023-06-10T08:15:06;9.47;;;4.00;;
76063;SDS011;64762;52.006;8.424;2023-06-10T08:17:31;11.52;;;4.28;;
76063;SDS011;64762;52.006;8.424;2023-06-10T08:19:56;8.53;;;3.80;;
76063;SDS011;64762;52.006;8.424;2023-06-10T08:22:22;9.30;;;3.55;;
76063;SDS011;64762;52.006;8.424;2023-06-10T08:24:47;12.23;;;3.83;;
76063;SDS011;64762;52.006;8.424;2023-06-10T08:27:13;9.50;;;4.43;;
76063;SDS011;64762;52.006;8.424;2023-06-10T08:29:38;9.53;;;4.10;;
76063;SDS011;64762;52.006;8.424;2023-06-10T08:32:04;8.50;;;3.97;;
76063;SDS011;64762;52.006;8.424;2023-06-10T08:34:30;9.38;;;4.00;;
76063;SDS011;64762;52.006;8.424;2023-06-10T08:36:56;9.68;;;3.90;;
76063;SDS011;64762;52.006;8.424;2023-06-10T08:39:22;12.20;;;3.93;;
76063;SDS011;64762;52.006;8.424;2023-06-10T08:42:33;8.95;;;3.80;;
76063;SDS011;64762;52.006;8.424;2023-06-10T08:44:36;7.68;;;3.75;;
76063;SDS011;64762;52.006;8.424;2023-06-10T08:47:15;10.10;;;4.93;;
76063;SDS011;64762;52.006;8.424;2023-06-10T08:49:43;12.18;;;4.20;;
76063;SDS011;64762;52.006;8.424;2023-06-10T08:52:11;9.05;;;4.47;;
76063;SDS011;64762;52.006;8.424;2023-06-10T08:57:05;8.85;;;4.03;;
76063;SDS011;64762;52.006;8.424;2023-06-10T08:59:31;9.30;;;4.07;;
76063;SDS011;64762;52.006;8.424;2023-06-10T09:01:56;8.00;;;3.70;;
76063;SDS011;64762;52.006;8.424;2023-06-10T09:04:23;9.27;;;4.25;;
76063;SDS011;64762;52.006;8.424;2023-06-10T09:06:49;9.45;;;4.32;;
76063;SDS011;64762;52.006;8.424;2023-06-10T09:09:15;10.32;;;4.53;;
76063;SDS011;64762;52.006;8.424;2023-06-10T09:11:43;9.17;;;4.30;;
76063;SDS011;64762;52.006;8.424;2023-06-10T09:14:09;11.10;;;4.20;;
76063;SDS011;64762;52.006;8.424;2023-06-10T09:16:35;9.57;;;3.80;;
76063;SDS011;64762;52.006;8.424;2023-06-10T09:19:00;11.88;;;4.10;;
76063;SDS011;64762;52.006;8.424;2023-06-10T09:21:26;9.55;;;3.95;;
76063;SDS011;64762;52.006;8.424;2023-06-10T09:23:51;7.10;;;4.20;;
76063;SDS011;64762;52.006;8.424;2023-06-10T09:26:17;11.63;;;4.03;;
76063;SDS011;64762;52.006;8.424;2023-06-10T09:28:49;7.65;;;4.13;;
76063;SDS011;64762;52.006;8.424;2023-06-10T09:31:17;10.68;;;4.38;;
76063;SDS011;64762;52.006;8.424;2023-06-10T09:33:46;11.25;;;4.15;;
76063;SDS011;64762;52.006;8.424;2023-06-10T09:36:20;7.93;;;3.75;;
76063;SDS011;64762;52.006;8.424;2023-06-10T09:38:46;7.30;;;3.63;;
76063;SDS011;64762;52.006;8.424;2023-06-10T09:41:14;11.88;;;4.43;;
76063;SDS011;64762;52.006;8.424;2023-06-10T09:43:43;8.93;;;4.00;;
76063;SDS011;64762;52.006;8.424;2023-06-10T09:46:16;9.52;;;4.18;;
76063;SDS011;64762;52.006;8.424;2023-06-10T09:48:43;9.60;;;4.35;;
76063;SDS011;64762;52.006;8.424;2023-06-10T09:51:09;11.23;;;4.63;;
76063;SDS011;64762;52.006;8.424;2023-06-10T09:53:35;8.70;;;3.97;;
76063;SDS011;64762;52.006;8.424;2023-06-10T09:56:01;10.30;;;4.50;;
76063;SDS011;64762;52.006;8.424;2023-06-10T10:01:10;11.45;;;5.10;;
76063;SDS011;64762;52.006;8.424;2023-06-10T10:03:44;11.85;;;4.90;;
76063;SDS011;64762;52.006;8.424;2023-06-10T10:06:14;11.63;;;4.60;;
76063;SDS011;64762;52.006;8.424;2023-06-10T10:08:40;11.10;;;4.90;;
76063;SDS011;64762;52.006;8.424;2023-06-10T10:11:06;10.65;;;4.97;;
76063;SDS011;64762;52.006;8.424;2023-06-10T10:13:33;10.90;;;5.30;;
76063;SDS011;64762;52.006;8.424;2023-06-10T10:15:59;10.73;;;5.43;;
76063;SDS011;64762;52.006;8.424;2023-06-10T10:18:29;11.65;;;4.80;;
76063;SDS011;64762;52.006;8.424;2023-06-10T10:20:55;10.07;;;4.72;;
76063;SDS011;64762;52.006;8.424;2023-06-10T10:23:24;11.73;;;4.80;;
76063;SDS011;64762;52.006;8.424;2023-06-10T10:25:53;10.23;;;4.30;;
76063;SDS011;64762;52.006;8.424;2023-06-10T10:28:20;12.93;;;5.55;;
76063;SDS011;64762;52.006;8.424;2023-06-10T10:30:49;12.20;;;4.72;;
76063;SDS011;64762;52.006;8.424;2023-06-10T10:33:36;13.13;;;4.65;;
76063;SDS011;64762;52.006;8.424;2023-06-10T10:36:14;10.65;;;5.20;;
76063;SDS011;64762;52.006;8.424;2023-06-10T10:38:40;9.68;;;4.57;;
76063;SDS011;64762;52.006;8.424;2023-06-10T10:41:06;11.73;;;4.93;;
76063;SDS011;64762;52.006;8.424;2023-06-10T10:43:32;10.18;;;4.72;;
76063;SDS011;64762;52.006;8.424;2023-06-10T10:46:01;12.75;;;5.32;;
76063;SDS011;64762;52.006;8.424;2023-06-10T10:48:37;11.40;;;5.38;;
76063;SDS011;64762;52.006;8.424;2023-06-10T10:51:02;11.95;;;4.72;;
76063;SDS011;64762;52.006;8.424;2023-06-10T10:53:27;10.37;;;5.33;;
76063;SDS011;64762;52.006;8.424;2023-06-10T10:58:32;10.98;;;5.10;;
76063;SDS011;64762;52.006;8.424;2023-06-10T11:00:57;10.68;;;5.25;;
76063;SDS011;64762;52.006;8.424;2023-06-10T11:03:27;11.13;;;4.73;;
76063;SDS011;64762;52.006;8.424;2023-06-10T11:05:53;8.18;;;4.55;;
76063;SDS011;64762;52.006;8.424;2023-06-10T11:10:53;8.23;;;5.13;;
76063;SDS011;64762;52.006;8.424;2023-06-10T11:13:19;9.25;;;5.25;;
76063;SDS011;64762;52.006;8.424;2023-06-10T11:28:39;10.60;;;5.00;;
76063;SDS011;64762;52.006;8.424;2023-06-10T11:31:05;10.20;;;4.32;;
76063;SDS011;64762;52.006;8.424;2023-06-10T11:33:31;10.57;;;4.53;;
76063;SDS011;64762;52.006;8.424;2023-06-10T11:35:56;9.23;;;4.65;;
76063;SDS011;64762;52.006;8.424;2023-06-10T11:38:23;7.60;;;4.57;;
76063;SDS011;64762;52.006;8.424;2023-06-10T11:40:48;9.15;;;4.45;;
76063;SDS011;64762;52.006;8.424;2023-06-10T11:43:17;10.57;;;4.60;;
76063;SDS011;64762;52.006;8.424;2023-06-10T11:45:42;7.78;;;4.70;;
76063;SDS011;64762;52.006;8.424;2023-06-10T11:48:09;9.05;;;4.63;;
76063;SDS011;64762;52.006;8.424;2023-06-10T11:50:34;9.65;;;4.80;;
76063;SDS011;64762;52.006;8.424;2023-06-10T11:53:00;10.05;;;4.80;;
76063;SDS011;64762;52.006;8.424;2023-06-10T11:55:26;8.93;;;4.60;;
76063;SDS011;64762;52.006;8.424;2023-06-10T11:58:12;13.45;;;5.45;;
76063;SDS011;64762;52.006;8.424;2023-06-10T12:00:47;11.70;;;4.88;;
76063;SDS011;64762;52.006;8.424;2023-06-10T12:03:18;9.40;;;4.88;;
76063;SDS011;64762;52.006;8.424;2023-06-10T12:05:57;12.45;;;4.25;;
76063;SDS011;64762;52.006;8.424;2023-06-10T12:08:23;10.60;;;4.57;;
76063;SDS011;64762;52.006;8.424;2023-06-10T12:10:48;7.80;;;4.70;;
76063;SDS011;64762;52.006;8.424;2023-06-10T12:13:14;10.38;;;4.60;;
76063;SDS011;64762;52.006;8.424;2023-06-10T12:15:39;7.70;;;4.13;;
76063;SDS011;64762;52.006;8.424;2023-06-10T12:18:04;10.70;;;5.47;;
76063;SDS011;64762;52.006;8.424;2023-06-10T12:20:30;8.83;;;4.53;;
76063;SDS011;64762;52.006;8.424;2023-06-10T12:25:25;9.82;;;4.55;;
76063;SDS011;64762;52.006;8.424;2023-06-10T12:27:52;11.65;;;5.10;;
76063;SDS011;64762;52.006;8.424;2023-06-10T12:30:19;8.70;;;4.93;;
76063;SDS011;64762;52.006;8.424;2023-06-10T12:32:46;9.98;;;5.45;;
76063;SDS011;64762;52.006;8.424;2023-06-10T12:35:12;9.80;;;4.50;;
76063;SDS011;64762;52.006;8.424;2023-06-10T12:37:42;10.93;;;5.03;;
76063;SDS011;64762;52.006;8.424;2023-06-10T12:40:08;9.30;;;5.00;;
76063;SDS011;64762;52.006;8.424;2023-06-10T12:42:35;10.57;;;4.95;;
76063;SDS011;64762;52.006;8.424;2023-06-10T12:45:01;12.25;;;4.90;;
76063;SDS011;64762;52.006;8.424;2023-06-10T12:47:30;9.23;;;5.03;;
76063;SDS011;64762;52.006;8.424;2023-06-10T12:50:00;11.02;;;4.55;;
76063;SDS011;64762;52.006;8.424;2023-06-10T12:52:26;8.88;;;5.32;;
76063;SDS011;64762;52.006;8.424;2023-06-10T12:54:52;9.10;;;4.80;;
76063;SDS011;64762;52.006;8.424;2023-06-10T12:57:21;8.82;;;4.80;;
76063;SDS011;64762;52.006;8.424;2023-06-10T12:59:47;10.80;;;5.57;;
76063;SDS011;64762;52.006;8.424;2023-06-10T13:02:17;15.75;;;4.78;;
76063;SDS011;64762;52.006;8.424;2023-06-10T13:04:46;9.20;;;4.75;;
76063;SDS011;64762;52.006;8.424;2023-06-10T13:07:12;8.95;;;4.80;;
76063;SDS011;64762;52.006;8.424;2023-06-10T13:09:37;11.43;;;4.82;;
76063;SDS011;64762;52.006;8.424;2023-06-10T13:12:03;11.98;;;5.28;;
76063;SDS011;64762;52.006;8.424;2023-06-10T13:14:28;11.68;;;5.22;;
76063;SDS011;64762;52.006;8.424;2023-06-10T13:16:54;10.83;;;5.20;;
76063;SDS011;64762;52.006;8.424;2023-06-10T13:19:20;11.52;;;5.25;;
76063;SDS011;64762;52.006;8.424;2023-06-10T13:21:48;9.73;;;5.32;;
76063;SDS011;64762;52.006;8.424;2023-06-10T13:24:14;10.40;;;5.00;;
76063;SDS011;64762;52.006;8.424;2023-06-10T13:26:39;10.32;;;5.57;;
76063;SDS011;64762;52.006;8.424;2023-06-10T13:29:05;12.23;;;5.33;;
76063;SDS011;64762;52.006;8.424;2023-06-10T13:31:30;12.90;;;5.73;;
76063;SDS011;64762;52.006;8.424;2023-06-10T13:33:57;10.32;;;5.18;;
76063;SDS011;64762;52.006;8.424;2023-06-10T13:36:22;12.03;;;5.43;;
76063;SDS011;64762;52.006;8.424;2023-06-10T13:38:47;11.30;;;5.03;;
76063;SDS011;64762;52.006;8.424;2023-06-10T13:41:13;9.55;;;5.18;;
76063;SDS011;64762;52.006;8.424;2023-06-10T13:43:39;8.17;;;4.50;;
76063;SDS011;64762;52.006;8.424;2023-06-10T13:46:04;11.73;;;5.88;;
76063;SDS011;64762;52.006;8.424;2023-06-10T13:48:29;9.80;;;5.07;;
76063;SDS011;64762;52.006;8.424;2023-06-10T13:50:56;11.25;;;5.25;;
76063;SDS011;64762;52.006;8.424;2023-06-10T13:53:21;10.33;;;5.47;;
76063;SDS011;64762;52.006;8.424;2023-06-10T13:55:46;11.50;;;5.90;;
76063;SDS011;64762;52.006;8.424;2023-06-10T13:58:12;12.23;;;5.23;;
76063;SDS011;64762;52.006;8.424;2023-06-10T14:00:37;10.27;;;5.40;;
76063;SDS011;64762;52.006;8.424;2023-06-10T14:03:02;9.30;;;5.40;;
76063;SDS011;64762;52.006;8.424;2023-06-10T14:05:28;10.88;;;5.45;;
76063;SDS011;64762;52.006;8.424;2023-06-10T14:07:53;13.57;;;5.37;;
76063;SDS011;64762;52.006;8.424;2023-06-10T14:10:19;10.70;;;5.60;;
76063;SDS011;64762;52.006;8.424;2023-06-10T14:12:44;10.83;;;6.33;;
76063;SDS011;64762;52.006;8.424;2023-06-10T14:15:09;19.77;;;5.97;;
76063;SDS011;64762;52.006;8.424;2023-06-10T14:17:35;10.07;;;5.47;;
76063;SDS011;64762;52.006;8.424;2023-06-10T14:20:00;11.93;;;6.43;;
76063;SDS011;64762;52.006;8.424;2023-06-10T14:22:26;10.43;;;5.30;;
76063;SDS011;64762;52.006;8.424;2023-06-10T14:24:51;11.05;;;5.65;;
76063;SDS011;64762;52.006;8.424;2023-06-10T14:27:16;10.33;;;6.23;;
76063;SDS011;64762;52.006;8.424;2023-06-10T14:29:42;9.85;;;6.00;;
76063;SDS011;64762;52.006;8.424;2023-06-10T14:32:07;10.43;;;6.50;;
76063;SDS011;64762;52.006;8.424;2023-06-10T14:34:32;10.50;;;6.53;;
76063;SDS011;64762;52.006;8.424;2023-06-10T14:36:59;11.00;;;6.13;;
76063;SDS011;64762;52.006;8.424;2023-06-10T14:39:25;14.63;;;6.07;;
76063;SDS011;64762;52.006;8.424;2023-06-10T14:41:50;9.40;;;6.20;;
76063;SDS011;64762;52.006;8.424;2023-06-10T14:44:17;14.88;;;6.28;;
76063;SDS011;64762;52.006;8.424;2023-06-10T14:46:42;11.70;;;6.87;;
76063;SDS011;64762;52.006;8.424;2023-06-10T14:49:08;10.67;;;6.07;;
76063;SDS011;64762;52.006;8.424;2023-06-10T14:51:33;13.02;;;5.75;;
76063;SDS011;64762;52.006;8.424;2023-06-10T14:53:59;11.18;;;6.43;;
76063;SDS011;64762;52.006;8.424;2023-06-10T14:56:24;11.03;;;6.20;;
76063;SDS011;64762;52.006;8.424;2023-06-10T14:58:50;12.85;;;6.68;;
76063;SDS011;64762;52.006;8.424;2023-06-10T15:01:16;11.07;;;7.03;;
76063;SDS011;64762;52.006;8.424;2023-06-10T15:03:41;12.87;;;7.53;;
76063;SDS011;64762;52.006;8.424;2023-06-10T15:06:06;11.77;;;6.53;;
76063;SDS011;64762;52.006;8.424;2023-06-10T15:08:32;10.40;;;6.73;;
76063;SDS011;64762;52.006;8.424;2023-06-10T15:10:57;12.77;;;7.23;;
76063;SDS011;64762;52.006;8.424;2023-06-10T15:13:22;12.80;;;6.60;;
76063;SDS011;64762;52.006;8.424;2023-06-10T15:15:47;11.67;;;6.63;;
76063;SDS011;64762;52.006;8.424;2023-06-10T15:18:13;14.30;;;7.20;;
76063;SDS011;64762;52.006;8.424;2023-06-10T15:20:38;11.83;;;7.20;;
76063;SDS011;64762;52.006;8.424;2023-06-10T15:23:04;11.20;;;7.07;;
76063;SDS011;64762;52.006;8.424;2023-06-10T15:25:29;9.93;;;6.80;;
76063;SDS011;64762;52.006;8.424;2023-06-10T15:27:54;12.95;;;7.22;;
76063;SDS011;64762;52.006;8.424;2023-06-10T15:30:20;11.00;;;7.43;;
76063;SDS011;64762;52.006;8.424;2023-06-10T15:32:45;12.67;;;7.13;;
76063;SDS011;64762;52.006;8.424;2023-06-10T15:35:10;13.00;;;7.57;;
76063;SDS011;64762;52.006;8.424;2023-06-10T15:37:36;12.00;;;7.03;;
76063;SDS011;64762;52.006;8.424;2023-06-10T15:40:02;13.50;;;7.33;;
76063;SDS011;64762;52.006;8.424;2023-06-10T15:42:27;12.82;;;7.10;;
76063;SDS011;64762;52.006;8.424;2023-06-10T15:44:52;15.93;;;7.43;;
76063;SDS011;64762;52.006;8.424;2023-06-10T15:47:18;13.17;;;7.60;;
76063;SDS011;64762;52.006;8.424;2023-06-10T15:49:44;11.25;;;7.15;;
76063;SDS011;64762;52.006;8.424;2023-06-10T15:52:10;10.80;;;7.30;;
76063;SDS011;64762;52.006;8.424;2023-06-10T15:54:35;11.13;;;7.53;;
76063;SDS011;64762;52.006;8.424;2023-06-10T15:57:00;11.10;;;8.10;;
76063;SDS011;64762;52.006;8.424;2023-06-10T15:59:28;14.38;;;8.20;;
76063;SDS011;64762;52.006;8.424;2023-06-10T16:01:54;13.73;;;7.25;;
76063;SDS011;64762;52.006;8.424;2023-06-10T16:04:19;11.43;;;7.93;;
76063;SDS011;64762;52.006;8.424;2023-06-10T16:06:45;9.75;;;7.13;;
76063;SDS011;64762;52.006;8.424;2023-06-10T16:09:10;11.57;;;7.32;;
76063;SDS011;64762;52.006;8.424;2023-06-10T16:11:36;10.80;;;7.20;;
76063;SDS011;64762;52.006;8.424;2023-06-10T16:14:01;11.73;;;7.65;;
76063;SDS011;64762;52.006;8.424;2023-06-10T16:16:27;12.95;;;8.05;;
76063;SDS011;64762;52.006;8.424;2023-06-10T16:18:52;13.23;;;7.50;;
76063;SDS011;64762;52.006;8.424;2023-06-10T16:21:18;17.70;;;7.57;;
76063;SDS011;64762;52.006;8.424;2023-06-10T16:23:43;12.10;;;7.37;;
76063;SDS011;64762;52.006;8.424;2023-06-10T16:26:08;16.83;;;7.87;;
76063;SDS011;64762;52.006;8.424;2023-06-10T16:28:34;11.98;;;7.40;;
76063;SDS011;64762;52.006;8.424;2023-06-10T16:30:59;10.30;;;7.13;;
76063;SDS011;64762;52.006;8.424;2023-06-10T16:33:25;12.05;;;6.93;;
76063;SDS011;64762;52.006;8.424;2023-06-10T16:35:50;14.63;;;8.07;;
76063;SDS011;64762;52.006;8.424;2023-06-10T16:38:15;10.97;;;7.47;;
76063;SDS011;64762;52.006;8.424;2023-06-10T16:40:41;14.10;;;7.97;;
76063;SDS011;64762;52.006;8.424;2023-06-10T16:43:06;12.70;;;7.33;;
76063;SDS011;64762;52.006;8.424;2023-06-10T16:45:31;15.43;;;8.07;;
76063;SDS011;64762;52.006;8.424;2023-06-10T16:47:57;16.50;;;8.00;;
76063;SDS011;64762;52.006;8.424;2023-06-10T16:50:22;14.50;;;8.90;;
76063;SDS011;64762;52.006;8.424;2023-06-10T16:52:47;16.63;;;10.02;;
76063;SDS011;64762;52.006;8.424;2023-06-10T16:55:13;12.37;;;8.13;;
76063;SDS011;64762;52.006;8.424;2023-06-10T16:57:38;11.53;;;7.93;;
76063;SDS011;64762;52.006;8.424;2023-06-10T17:00:03;16.00;;;8.10;;
76063;SDS011;64762;52.006;8.424;2023-06-10T17:02:31;11.63;;;8.00;;
76063;SDS011;64762;52.006;8.424;2023-06-10T17:04:56;14.13;;;8.43;;
76063;SDS011;64762;52.006;8.424;2023-06-10T17:07:23;11.37;;;7.47;;
76063;SDS011;64762;52.006;8.424;2023-06-10T17:09:48;11.60;;;7.72;;
76063;SDS011;64762;52.006;8.424;2023-06-10T17:12:13;10.70;;;7.27;;
76063;SDS011;64762;52.006;8.424;2023-06-10T17:14:38;13.27;;;7.63;;
76063;SDS011;64762;52.006;8.424;2023-06-10T17:17:04;12.07;;;7.90;;
76063;SDS011;64762;52.006;8.424;2023-06-10T17:19:30;13.13;;;7.38;;
76063;SDS011;64762;52.006;8.424;2023-06-10T17:21:55;13.13;;;7.40;;
76063;SDS011;64762;52.006;8.424;2023-06-10T17:24:22;12.65;;;8.88;;
76063;SDS011;64762;52.006;8.424;2023-06-10T17:26:47;19.07;;;7.20;;
76063;SDS011;64762;52.006;8.424;2023-06-10T17:29:13;13.10;;;7.90;;
76063;SDS011;64762;52.006;8.424;2023-06-10T17:31:38;10.70;;;6.30;;
76063;SDS011;64762;52.006;8.424;2023-06-10T17:34:03;15.50;;;7.50;;
76063;SDS011;64762;52.006;8.424;2023-06-10T17:36:29;10.00;;;7.17;;
76063;SDS011;64762;52.006;8.424;2023-06-10T17:38:54;11.13;;;8.03;;
76063;SDS011;64762;52.006;8.424;2023-06-10T17:41:19;10.63;;;7.07;;
76063;SDS011;64762;52.006;8.424;2023-06-10T17:43:45;10.25;;;6.82;;
76063;SDS011;64762;52.006;8.424;2023-06-10T17:46:10;12.17;;;7.70;;
76063;SDS011;64762;52.006;8.424;2023-06-10T17:48:36;10.35;;;6.95;;
76063;SDS011;64762;52.006;8.424;2023-06-10T17:51:01;10.60;;;7.27;;
76063;SDS011;64762;52.006;8.424;2023-06-10T17:53:26;11.83;;;7.23;;
76063;SDS011;64762;52.006;8.424;2023-06-10T17:55:52;14.67;;;7.43;;
76063;SDS011;64762;52.006;8.424;2023-06-10T17:58:17;12.47;;;7.60;;
76063;SDS011;64762;52.006;8.424;2023-06-10T18:00:42;12.87;;;7.87;;
76063;SDS011;64762;52.006;8.424;2023-06-10T18:03:08;12.53;;;7.57;;
76063;SDS011;64762;52.006;8.424;2023-06-10T18:05:33;12.27;;;7.60;;
76063;SDS011;64762;52.006;8.424;2023-06-10T18:07:58;14.83;;;7.53;;
76063;SDS011;64762;52.006;8.424;2023-06-10T18:10:24;12.32;;;7.75;;
76063;SDS011;64762;52.006;8.424;2023-06-10T18:12:49;12.32;;;8.15;;
76063;SDS011;64762;52.006;8.424;2023-06-10T18:15:14;14.53;;;7.13;;
76063;SDS011;64762;52.006;8.424;2023-06-10T18:17:40;16.47;;;7.60;;
76063;SDS011;64762;52.006;8.424;2023-06-10T18:20:05;10.57;;;7.13;;
76063;SDS011;64762;52.006;8.424;2023-06-10T18:22:31;13.65;;;7.20;;
76063;SDS011;64762;52.006;8.424;2023-06-10T18:24:57;11.10;;;7.07;;
76063;SDS011;64762;52.006;8.424;2023-06-10T18:27:22;11.02;;;8.30;;
76063;SDS011;64762;52.006;8.424;2023-06-10T18:29:48;16.90;;;8.20;;
76063;SDS011;64762;52.006;8.424;2023-06-10T18:32:13;13.00;;;7.83;;
76063;SDS011;64762;52.006;8.424;2023-06-10T18:34:38;13.67;;;7.43;;
76063;SDS011;64762;52.006;8.424;2023-06-10T18:37:05;16.10;;;7.97;;
76063;SDS011;64762;52.006;8.424;2023-06-10T18:39:31;16.10;;;7.57;;
76063;SDS011;64762;52.006;8.424;2023-06-10T18:41:58;11.52;;;7.78;;
76063;SDS011;64762;52.006;8.424;2023-06-10T18:44:25;13.93;;;7.90;;
76063;SDS011;64762;52.006;8.424;2023-06-10T18:46:51;13.33;;;8.37;;
76063;SDS011;64762;52.006;8.424;2023-06-10T18:49:16;13.13;;;8.97;;
76063;SDS011;64762;52.006;8.424;2023-06-10T18:51:41;13.77;;;7.70;;
76063;SDS011;64762;52.006;8.424;2023-06-10T18:54:06;12.63;;;7.80;;
76063;SDS011;64762;52.006;8.424;2023-06-10T18:56:32;13.80;;;8.90;;
76063;SDS011;64762;52.006;8.424;2023-06-10T18:58:57;11.27;;;8.03;;
76063;SDS011;64762;52.006;8.424;2023-06-10T19:01:22;13.63;;;7.63;;
76063;SDS011;64762;52.006;8.424;2023-06-10T19:03:48;14.50;;;8.00;;
76063;SDS011;64762;52.006;8.424;2023-06-10T19:06:14;10.98;;;7.55;;
76063;SDS011;64762;52.006;8.424;2023-06-10T19:08:39;10.90;;;7.53;;
76063;SDS011;64762;52.006;8.424;2023-06-10T19:11:05;14.37;;;8.20;;
76063;SDS011;64762;52.006;8.424;2023-06-10T19:13:31;11.32;;;7.57;;
76063;SDS011;64762;52.006;8.424;2023-06-10T19:15:57;13.98;;;8.27;;
76063;SDS011;64762;52.006;8.424;2023-06-10T19:18:23;14.68;;;7.97;;
76063;SDS011;64762;52.006;8.424;2023-06-10T19:20:48;13.43;;;7.40;;
76063;SDS011;64762;52.006;8.424;2023-06-10T19:23:13;15.67;;;6.60;;
76063;SDS011;64762;52.006;8.424;2023-06-10T19:25:39;11.10;;;6.95;;
76063;SDS011;64762;52.006;8.424;2023-06-10T19:28:05;8.97;;;6.13;;
76063;SDS011;64762;52.006;8.424;2023-06-10T19:30:31;15.48;;;6.57;;
76063;SDS011;64762;52.006;8.424;2023-06-10T19:32:56;11.00;;;7.32;;
76063;SDS011;64762;52.006;8.424;2023-06-10T19:35:22;10.00;;;7.57;;
76063;SDS011;64762;52.006;8.424;2023-06-10T19:37:47;8.77;;;5.73;;
76063;SDS011;64762;52.006;8.424;2023-06-10T19:40:12;7.73;;;5.70;;
76063;SDS011;64762;52.006;8.424;2023-06-10T19:42:38;10.27;;;6.80;;
76063;SDS011;64762;52.006;8.424;2023-06-10T19:45:03;10.73;;;6.27;;
76063;SDS011;64762;52.006;8.424;2023-06-10T19:47:29;8.32;;;5.15;;
76063;SDS011;64762;52.006;8.424;2023-06-10T19:49:54;9.93;;;5.97;;
76063;SDS011;64762;52.006;8.424;2023-06-10T19:52:20;10.57;;;5.85;;
76063;SDS011;64762;52.006;8.424;2023-06-10T19:54:45;8.17;;;4.83;;
76063;SDS011;64762;52.006;8.424;2023-06-10T19:57:11;8.70;;;4.75;;